sensor_id;sensor_type;location;lat;lon;timestamp;P1;P2;P0
64861;PMS5003;62652;42.274;-71.436;2022-11-20T00:00:00;8.40;6.60;4.13
64861;PMS5003;62652;42.274;-71.436;2022-11-20T00:01:03;10.83;9.77;6.27
64861;PMS5003;62652;42.274;-71.436;2022-11-20T00:02:00;10.13;10.03;6.13
64861;PMS5003;62652;42.274;-71.436;2022-11-20T00:03:00;14.10;11.87;5.40
64861;PMS5003;62652;42.274;-71.436;2022-11-20T00:04:00;10.53;10.07;6.10
64861;PMS5003;62652;42.274;-71.436;2022-11-20T00:05:00;11.43;10.23;5.23
64861;PMS5003;62652;42.274;-71.436;2022-11-20T00:06:00;11.93;11.07;6.23
64861;PMS5003;62652;42.274;-71.436;2022-11-20T00:07:00;11.33;9.97;4.70
64861;PMS5003;62652;42.274;-71.436;2022-11-20T00:08:00;9.80;9.73;5.53
64861;PMS5003;62652;42.274;-71.436;2022-11-20T00:09:00;12.60;10.67;6.63
64861;PMS5003;62652;42.274;-71.436;2022-11-20T00:10:00;9.37;8.33;5.13
64861;PMS5003;62652;42.274;-71.436;2022-11-20T00:11:02;12.00;11.00;6.20
64861;PMS5003;62652;42.274;-71.436;2022-11-20T00:12:00;10.67;9.60;5.93
64861;PMS5003;62652;42.274;-71.436;2022-11-20T00:13:00;11.90;11.37;7.17
64861;PMS5003;62652;42.274;-71.436;2022-11-20T00:14:00;12.27;11.00;5.87
64861;PMS5003;62652;42.274;-71.436;2022-11-20T00:15:00;12.47;10.77;5.63
64861;PMS5003;62652;42.274;-71.436;2022-11-20T00:16:00;10.83;10.73;6.23
64861;PMS5003;62652;42.274;-71.436;2022-11-20T00:17:00;12.43;12.00;5.87
64861;PMS5003;62652;42.274;-71.436;2022-11-20T00:18:00;9.73;9.63;5.87
64861;PMS5003;62652;42.274;-71.436;2022-11-20T00:19:00;10.37;9.33;6.17
64861;PMS5003;62652;42.274;-71.436;2022-11-20T00:20:00;10.10;9.57;5.50
64861;PMS5003;62652;42.274;-71.436;2022-11-20T00:21:00;10.93;10.10;6.97
64861;PMS5003;62652;42.274;-71.436;2022-11-20T00:22:00;12.80;11.83;6.57
64861;PMS5003;62652;42.274;-71.436;2022-11-20T00:23:00;11.40;10.37;5.73
64861;PMS5003;62652;42.274;-71.436;2022-11-20T00:24:00;11.67;11.17;5.27
64861;PMS5003;62652;42.274;-71.436;2022-11-20T00:25:00;11.63;10.47;5.53
64861;PMS5003;62652;42.274;-71.436;2022-11-20T00:26:01;12.03;11.33;6.17
64861;PMS5003;62652;42.274;-71.436;2022-11-20T00:27:00;13.07;12.70;6.40
64861;PMS5003;62652;42.274;-71.436;2022-11-20T00:28:00;10.30;9.93;5.53
64861;PMS5003;62652;42.274;-71.436;2022-11-20T00:29:00;12.07;9.90;6.07
64861;PMS5003;62652;42.274;-71.436;2022-11-20T00:30:00;10.70;10.70;6.00
64861;PMS5003;62652;42.274;-71.436;2022-11-20T00:31:01;12.27;10.73;5.77
64861;PMS5003;62652;42.274;-71.436;2022-11-20T00:32:00;13.30;11.43;5.10
64861;PMS5003;62652;42.274;-71.436;2022-11-20T00:33:00;12.83;10.77;6.00
64861;PMS5003;62652;42.274;-71.436;2022-11-20T00:34:00;12.23;11.40;6.13
64861;PMS5003;62652;42.274;-71.436;2022-11-20T00:35:00;10.97;10.63;6.60
64861;PMS5003;62652;42.274;-71.436;2022-11-20T00:36:00;11.47;10.73;5.60
64861;PMS5003;62652;42.274;-71.436;2022-11-20T00:37:00;13.23;11.23;7.53
64861;PMS5003;62652;42.274;-71.436;2022-11-20T00:38:00;12.57;10.93;7.27
64861;PMS5003;62652;42.274;-71.436;2022-11-20T00:39:00;10.97;10.53;5.43
64861;PMS5003;62652;42.274;-71.436;2022-11-20T00:40:00;11.73;11.27;7.50
64861;PMS5003;62652;42.274;-71.436;2022-11-20T00:41:01;12.97;11.33;5.33
64861;PMS5003;62652;42.274;-71.436;2022-11-20T00:42:00;11.97;10.63;6.70
64861;PMS5003;62652;42.274;-71.436;2022-11-20T00:43:00;13.47;11.93;8.83
64861;PMS5003;62652;42.274;-71.436;2022-11-20T00:44:00;12.63;11.93;6.00
64861;PMS5003;62652;42.274;-71.436;2022-11-20T00:45:00;12.90;12.03;7.00
64861;PMS5003;62652;42.274;-71.436;2022-11-20T00:46:00;11.53;10.47;6.03
64861;PMS5003;62652;42.274;-71.436;2022-11-20T00:47:00;12.67;12.67;7.10
64861;PMS5003;62652;42.274;-71.436;2022-11-20T00:48:00;12.57;11.57;7.00
64861;PMS5003;62652;42.274;-71.436;2022-11-20T00:49:00;14.00;12.63;6.63
64861;PMS5003;62652;42.274;-71.436;2022-11-20T00:50:00;16.83;15.27;8.33
64861;PMS5003;62652;42.274;-71.436;2022-11-20T00:51:00;14.17;13.10;7.20
64861;PMS5003;62652;42.274;-71.436;2022-11-20T00:52:00;13.80;13.40;8.13
64861;PMS5003;62652;42.274;-71.436;2022-11-20T00:53:00;14.77;12.17;6.93
64861;PMS5003;62652;42.274;-71.436;2022-11-20T00:54:00;10.90;10.47;5.80
64861;PMS5003;62652;42.274;-71.436;2022-11-20T00:55:00;11.83;11.40;6.03
64861;PMS5003;62652;42.274;-71.436;2022-11-20T00:56:01;13.27;11.47;6.93
64861;PMS5003;62652;42.274;-71.436;2022-11-20T00:57:00;11.83;11.60;6.00
64861;PMS5003;62652;42.274;-71.436;2022-11-20T00:58:00;13.03;12.80;7.03
64861;PMS5003;62652;42.274;-71.436;2022-11-20T00:59:00;16.73;14.90;7.40
64861;PMS5003;62652;42.274;-71.436;2022-11-20T01:00:00;11.57;10.97;5.40
64861;PMS5003;62652;42.274;-71.436;2022-11-20T01:01:00;13.83;12.23;6.33
64861;PMS5003;62652;42.274;-71.436;2022-11-20T01:02:00;13.70;12.60;7.90
64861;PMS5003;62652;42.274;-71.436;2022-11-20T01:03:00;13.73;11.93;6.87
64861;PMS5003;62652;42.274;-71.436;2022-11-20T01:04:00;14.07;13.20;7.37
64861;PMS5003;62652;42.274;-71.436;2022-11-20T01:05:00;12.53;11.80;7.20
64861;PMS5003;62652;42.274;-71.436;2022-11-20T01:06:00;12.83;11.97;8.87
64861;PMS5003;62652;42.274;-71.436;2022-11-20T01:07:00;13.40;11.77;7.20
64861;PMS5003;62652;42.274;-71.436;2022-11-20T01:08:00;16.17;14.20;7.73
64861;PMS5003;62652;42.274;-71.436;2022-11-20T01:09:02;13.77;11.80;6.67
64861;PMS5003;62652;42.274;-71.436;2022-11-20T01:10:00;16.87;13.20;7.53
64861;PMS5003;62652;42.274;-71.436;2022-11-20T01:11:00;12.93;12.27;7.90
64861;PMS5003;62652;42.274;-71.436;2022-11-20T01:12:00;14.80;12.90;8.00
64861;PMS5003;62652;42.274;-71.436;2022-11-20T01:13:00;12.93;11.53;8.07
64861;PMS5003;62652;42.274;-71.436;2022-11-20T01:14:01;12.20;11.90;7.17
64861;PMS5003;62652;42.274;-71.436;2022-11-20T01:15:00;15.37;13.90;9.13
64861;PMS5003;62652;42.274;-71.436;2022-11-20T01:16:02;16.50;14.73;7.63
64861;PMS5003;62652;42.274;-71.436;2022-11-20T01:17:00;13.50;12.03;6.93
64861;PMS5003;62652;42.274;-71.436;2022-11-20T01:18:00;12.83;11.13;6.77
64861;PMS5003;62652;42.274;-71.436;2022-11-20T01:19:01;14.57;13.40;8.13
64861;PMS5003;62652;42.274;-71.436;2022-11-20T01:20:00;13.53;12.57;7.20
64861;PMS5003;62652;42.274;-71.436;2022-11-20T01:21:01;13.37;11.80;6.77
64861;PMS5003;62652;42.274;-71.436;2022-11-20T01:22:00;13.23;11.23;5.80
64861;PMS5003;62652;42.274;-71.436;2022-11-20T01:23:00;13.20;12.10;7.10
64861;PMS5003;62652;42.274;-71.436;2022-11-20T01:24:00;16.43;16.00;8.80
64861;PMS5003;62652;42.274;-71.436;2022-11-20T01:25:00;17.97;15.67;9.10
64861;PMS5003;62652;42.274;-71.436;2022-11-20T01:26:01;13.67;12.43;7.73
64861;PMS5003;62652;42.274;-71.436;2022-11-20T01:27:00;14.10;12.93;7.67
64861;PMS5003;62652;42.274;-71.436;2022-11-20T01:28:00;14.57;12.83;7.93
64861;PMS5003;62652;42.274;-71.436;2022-11-20T01:29:00;13.60;12.37;8.33
64861;PMS5003;62652;42.274;-71.436;2022-11-20T01:30:00;12.97;11.37;7.93
64861;PMS5003;62652;42.274;-71.436;2022-11-20T01:31:00;12.50;12.40;7.40
64861;PMS5003;62652;42.274;-71.436;2022-11-20T01:32:00;17.03;13.80;8.07
64861;PMS5003;62652;42.274;-71.436;2022-11-20T01:33:00;19.30;15.27;8.17
64861;PMS5003;62652;42.274;-71.436;2022-11-20T01:34:01;18.80;16.83;9.53
64861;PMS5003;62652;42.274;-71.436;2022-11-20T01:35:00;15.20;14.07;8.73
64861;PMS5003;62652;42.274;-71.436;2022-11-20T01:36:05;18.03;16.93;9.90
64861;PMS5003;62652;42.274;-71.436;2022-11-20T01:37:00;17.07;14.17;9.27
64861;PMS5003;62652;42.274;-71.436;2022-11-20T01:38:00;17.47;16.37;9.67
64861;PMS5003;62652;42.274;-71.436;2022-11-20T01:39:01;16.60;13.70;9.83
64861;PMS5003;62652;42.274;-71.436;2022-11-20T01:40:00;17.97;16.47;10.07
64861;PMS5003;62652;42.274;-71.436;2022-11-20T01:41:00;20.73;19.17;12.43
64861;PMS5003;62652;42.274;-71.436;2022-11-20T01:42:00;16.90;16.73;11.47
64861;PMS5003;62652;42.274;-71.436;2022-11-20T01:43:06;18.00;17.40;11.63
64861;PMS5003;62652;42.274;-71.436;2022-11-20T01:44:00;19.30;16.87;10.97
64861;PMS5003;62652;42.274;-71.436;2022-11-20T01:45:00;15.80;13.87;10.40
64861;PMS5003;62652;42.274;-71.436;2022-11-20T01:46:02;14.97;13.40;8.93
64861;PMS5003;62652;42.274;-71.436;2022-11-20T01:47:00;18.43;17.33;10.83
64861;PMS5003;62652;42.274;-71.436;2022-11-20T01:48:00;17.50;15.97;8.87
64861;PMS5003;62652;42.274;-71.436;2022-11-20T01:49:00;14.80;13.27;9.50
64861;PMS5003;62652;42.274;-71.436;2022-11-20T01:50:03;14.00;12.37;8.00
64861;PMS5003;62652;42.274;-71.436;2022-11-20T01:51:00;12.93;11.47;8.80
64861;PMS5003;62652;42.274;-71.436;2022-11-20T01:52:01;17.40;12.97;8.50
64861;PMS5003;62652;42.274;-71.436;2022-11-20T01:53:00;11.23;10.80;5.97
64861;PMS5003;62652;42.274;-71.436;2022-11-20T01:54:01;12.93;11.17;7.20
64861;PMS5003;62652;42.274;-71.436;2022-11-20T01:55:01;11.93;11.23;7.97
64861;PMS5003;62652;42.274;-71.436;2022-11-20T01:56:00;13.27;12.50;7.73
64861;PMS5003;62652;42.274;-71.436;2022-11-20T01:57:00;15.73;13.90;9.43
64861;PMS5003;62652;42.274;-71.436;2022-11-20T01:58:01;13.90;11.50;8.00
64861;PMS5003;62652;42.274;-71.436;2022-11-20T01:59:01;12.80;11.77;7.33
64861;PMS5003;62652;42.274;-71.436;2022-11-20T02:00:02;13.30;11.93;6.17
64861;PMS5003;62652;42.274;-71.436;2022-11-20T02:01:00;12.67;10.73;6.73
64861;PMS5003;62652;42.274;-71.436;2022-11-20T02:02:00;16.00;12.40;8.13
64861;PMS5003;62652;42.274;-71.436;2022-11-20T02:03:01;10.97;9.73;6.13
64861;PMS5003;62652;42.274;-71.436;2022-11-20T02:04:00;13.97;13.97;8.27
64861;PMS5003;62652;42.274;-71.436;2022-11-20T02:05:01;13.40;12.40;8.83
64861;PMS5003;62652;42.274;-71.436;2022-11-20T02:06:02;16.57;14.20;8.30
64861;PMS5003;62652;42.274;-71.436;2022-11-20T02:07:01;13.07;12.60;8.40
64861;PMS5003;62652;42.274;-71.436;2022-11-20T02:08:00;13.67;13.10;9.57
64861;PMS5003;62652;42.274;-71.436;2022-11-20T02:09:00;14.17;13.30;7.90
64861;PMS5003;62652;42.274;-71.436;2022-11-20T02:10:00;17.33;15.97;9.53
64861;PMS5003;62652;42.274;-71.436;2022-11-20T02:11:00;14.40;12.47;8.40
64861;PMS5003;62652;42.274;-71.436;2022-11-20T02:12:00;16.93;15.87;9.57
64861;PMS5003;62652;42.274;-71.436;2022-11-20T02:13:00;15.37;13.67;9.23
64861;PMS5003;62652;42.274;-71.436;2022-11-20T02:14:00;15.90;13.93;8.73
64861;PMS5003;62652;42.274;-71.436;2022-11-20T02:15:00;14.10;13.20;8.30
64861;PMS5003;62652;42.274;-71.436;2022-11-20T02:16:00;13.23;12.27;8.77
64861;PMS5003;62652;42.274;-71.436;2022-11-20T02:17:00;12.77;11.43;8.13
64861;PMS5003;62652;42.274;-71.436;2022-11-20T02:18:00;15.77;14.30;7.57
64861;PMS5003;62652;42.274;-71.436;2022-11-20T02:19:00;19.97;16.47;8.87
64861;PMS5003;62652;42.274;-71.436;2022-11-20T02:20:00;16.60;15.17;8.87
64861;PMS5003;62652;42.274;-71.436;2022-11-20T02:21:02;14.47;13.70;8.57
64861;PMS5003;62652;42.274;-71.436;2022-11-20T02:22:02;18.73;14.30;9.50
64861;PMS5003;62652;42.274;-71.436;2022-11-20T02:23:01;20.57;17.20;10.00
64861;PMS5003;62652;42.274;-71.436;2022-11-20T02:24:01;17.33;16.60;9.90
64861;PMS5003;62652;42.274;-71.436;2022-11-20T02:25:00;18.90;17.87;10.93
64861;PMS5003;62652;42.274;-71.436;2022-11-20T02:26:00;20.37;18.57;11.03
64861;PMS5003;62652;42.274;-71.436;2022-11-20T02:27:01;17.83;15.93;9.73
64861;PMS5003;62652;42.274;-71.436;2022-11-20T02:28:00;19.13;16.67;11.00
64861;PMS5003;62652;42.274;-71.436;2022-11-20T02:29:00;17.73;16.17;10.00
64861;PMS5003;62652;42.274;-71.436;2022-11-20T02:30:01;17.33;15.00;9.80
64861;PMS5003;62652;42.274;-71.436;2022-11-20T02:31:00;16.47;15.83;10.10
64861;PMS5003;62652;42.274;-71.436;2022-11-20T02:32:00;12.83;11.77;8.00
64861;PMS5003;62652;42.274;-71.436;2022-11-20T02:33:00;14.30;13.37;9.30
64861;PMS5003;62652;42.274;-71.436;2022-11-20T02:34:00;14.07;13.40;8.73
64861;PMS5003;62652;42.274;-71.436;2022-11-20T02:35:06;12.87;12.23;8.90
64861;PMS5003;62652;42.274;-71.436;2022-11-20T02:36:00;15.83;14.13;10.37
64861;PMS5003;62652;42.274;-71.436;2022-11-20T02:37:00;16.97;13.83;8.03
64861;PMS5003;62652;42.274;-71.436;2022-11-20T02:38:01;11.83;11.23;7.00
64861;PMS5003;62652;42.274;-71.436;2022-11-20T02:39:00;15.40;13.57;8.37
64861;PMS5003;62652;42.274;-71.436;2022-11-20T02:40:00;16.40;14.47;8.47
64861;PMS5003;62652;42.274;-71.436;2022-11-20T02:41:00;13.73;12.70;8.60
64861;PMS5003;62652;42.274;-71.436;2022-11-20T02:42:01;15.70;13.70;9.40
64861;PMS5003;62652;42.274;-71.436;2022-11-20T02:43:00;15.87;15.20;8.40
64861;PMS5003;62652;42.274;-71.436;2022-11-20T02:44:00;12.77;12.67;8.80
64861;PMS5003;62652;42.274;-71.436;2022-11-20T02:45:00;17.97;15.97;8.90
64861;PMS5003;62652;42.274;-71.436;2022-11-20T02:46:00;11.93;11.17;7.77
64861;PMS5003;62652;42.274;-71.436;2022-11-20T02:47:00;17.87;16.23;10.20
64861;PMS5003;62652;42.274;-71.436;2022-11-20T02:48:00;16.63;15.03;9.97
64861;PMS5003;62652;42.274;-71.436;2022-11-20T02:49:01;12.80;12.40;7.53
64861;PMS5003;62652;42.274;-71.436;2022-11-20T02:50:00;15.23;12.77;9.10
64861;PMS5003;62652;42.274;-71.436;2022-11-20T02:51:00;13.03;11.90;8.40
64861;PMS5003;62652;42.274;-71.436;2022-11-20T02:52:00;15.17;12.53;8.60
64861;PMS5003;62652;42.274;-71.436;2022-11-20T02:53:00;16.33;14.60;8.17
64861;PMS5003;62652;42.274;-71.436;2022-11-20T02:54:00;18.67;15.40;10.00
64861;PMS5003;62652;42.274;-71.436;2022-11-20T02:55:00;12.93;11.27;8.50
64861;PMS5003;62652;42.274;-71.436;2022-11-20T02:56:00;15.80;15.00;10.13
64861;PMS5003;62652;42.274;-71.436;2022-11-20T02:57:00;18.73;15.67;9.97
64861;PMS5003;62652;42.274;-71.436;2022-11-20T02:58:00;13.10;12.73;8.60
64861;PMS5003;62652;42.274;-71.436;2022-11-20T02:59:00;15.33;14.50;9.73
64861;PMS5003;62652;42.274;-71.436;2022-11-20T03:00:00;15.87;13.83;9.73
64861;PMS5003;62652;42.274;-71.436;2022-11-20T03:01:00;14.80;13.03;8.67
64861;PMS5003;62652;42.274;-71.436;2022-11-20T03:02:00;16.33;15.13;9.47
64861;PMS5003;62652;42.274;-71.436;2022-11-20T03:03:00;13.50;12.03;8.80
64861;PMS5003;62652;42.274;-71.436;2022-11-20T03:04:00;17.17;15.23;9.07
64861;PMS5003;62652;42.274;-71.436;2022-11-20T03:05:00;16.97;14.00;9.00
64861;PMS5003;62652;42.274;-71.436;2022-11-20T03:06:00;16.50;14.37;9.00
64861;PMS5003;62652;42.274;-71.436;2022-11-20T03:07:00;15.37;13.40;10.33
64861;PMS5003;62652;42.274;-71.436;2022-11-20T03:08:00;13.40;13.20;9.37
64861;PMS5003;62652;42.274;-71.436;2022-11-20T03:09:00;14.97;13.50;9.00
64861;PMS5003;62652;42.274;-71.436;2022-11-20T03:10:00;16.57;14.80;10.00
64861;PMS5003;62652;42.274;-71.436;2022-11-20T03:11:02;17.43;15.60;8.77
64861;PMS5003;62652;42.274;-71.436;2022-11-20T03:12:00;13.83;12.73;8.50
64861;PMS5003;62652;42.274;-71.436;2022-11-20T03:13:00;16.10;12.97;8.53
64861;PMS5003;62652;42.274;-71.436;2022-11-20T03:14:01;17.90;16.57;8.90
64861;PMS5003;62652;42.274;-71.436;2022-11-20T03:15:00;12.10;11.43;8.70
64861;PMS5003;62652;42.274;-71.436;2022-11-20T03:16:04;13.80;12.40;8.00
64861;PMS5003;62652;42.274;-71.436;2022-11-20T03:17:00;16.33;15.03;10.10
64861;PMS5003;62652;42.274;-71.436;2022-11-20T03:18:00;16.03;15.00;9.73
64861;PMS5003;62652;42.274;-71.436;2022-11-20T03:19:00;16.23;14.87;9.10
64861;PMS5003;62652;42.274;-71.436;2022-11-20T03:20:00;17.20;15.97;9.13
64861;PMS5003;62652;42.274;-71.436;2022-11-20T03:21:00;15.23;13.70;10.10
64861;PMS5003;62652;42.274;-71.436;2022-11-20T03:22:00;16.30;15.67;10.67
64861;PMS5003;62652;42.274;-71.436;2022-11-20T03:23:00;17.23;15.80;10.73
64861;PMS5003;62652;42.274;-71.436;2022-11-20T03:24:00;17.10;13.03;9.33
64861;PMS5003;62652;42.274;-71.436;2022-11-20T03:25:00;15.43;14.50;9.77
64861;PMS5003;62652;42.274;-71.436;2022-11-20T03:26:08;15.67;14.80;9.67
64861;PMS5003;62652;42.274;-71.436;2022-11-20T03:27:00;17.10;15.17;10.70
64861;PMS5003;62652;42.274;-71.436;2022-11-20T03:28:00;13.00;12.20;8.93
64861;PMS5003;62652;42.274;-71.436;2022-11-20T03:29:01;13.50;12.07;8.30
64861;PMS5003;62652;42.274;-71.436;2022-11-20T03:30:00;15.10;14.07;10.13
64861;PMS5003;62652;42.274;-71.436;2022-11-20T03:31:04;17.47;16.03;10.73
64861;PMS5003;62652;42.274;-71.436;2022-11-20T03:32:00;14.43;12.70;8.47
64861;PMS5003;62652;42.274;-71.436;2022-11-20T03:33:00;14.40;12.50;9.33
64861;PMS5003;62652;42.274;-71.436;2022-11-20T03:34:00;17.10;15.90;9.87
64861;PMS5003;62652;42.274;-71.436;2022-11-20T03:35:00;19.23;16.40;10.77
64861;PMS5003;62652;42.274;-71.436;2022-11-20T03:36:01;17.00;16.07;10.63
64861;PMS5003;62652;42.274;-71.436;2022-11-20T03:37:00;17.33;15.73;10.93
64861;PMS5003;62652;42.274;-71.436;2022-11-20T03:38:00;18.30;15.33;10.63
64861;PMS5003;62652;42.274;-71.436;2022-11-20T03:39:00;17.10;13.80;10.50
64861;PMS5003;62652;42.274;-71.436;2022-11-20T03:40:00;14.43;12.73;9.00
64861;PMS5003;62652;42.274;-71.436;2022-11-20T03:41:00;18.67;18.10;11.53
64861;PMS5003;62652;42.274;-71.436;2022-11-20T03:42:00;15.63;15.57;9.97
64861;PMS5003;62652;42.274;-71.436;2022-11-20T03:43:00;13.80;12.67;8.87
64861;PMS5003;62652;42.274;-71.436;2022-11-20T03:44:00;17.70;16.80;11.17
64861;PMS5003;62652;42.274;-71.436;2022-11-20T03:45:00;15.27;13.47;8.73
64861;PMS5003;62652;42.274;-71.436;2022-11-20T03:46:00;15.73;14.50;10.33
64861;PMS5003;62652;42.274;-71.436;2022-11-20T03:47:00;15.07;14.40;10.37
64861;PMS5003;62652;42.274;-71.436;2022-11-20T03:48:00;17.00;15.10;10.00
64861;PMS5003;62652;42.274;-71.436;2022-11-20T03:49:00;13.90;12.30;9.10
64861;PMS5003;62652;42.274;-71.436;2022-11-20T03:50:00;16.33;14.90;10.37
64861;PMS5003;62652;42.274;-71.436;2022-11-20T03:51:08;15.70;14.77;11.03
64861;PMS5003;62652;42.274;-71.436;2022-11-20T03:52:00;18.70;13.77;9.30
64861;PMS5003;62652;42.274;-71.436;2022-11-20T03:53:00;16.97;15.90;9.13
64861;PMS5003;62652;42.274;-71.436;2022-11-20T03:54:00;13.43;12.73;9.37
64861;PMS5003;62652;42.274;-71.436;2022-11-20T03:55:00;16.90;16.13;9.90
64861;PMS5003;62652;42.274;-71.436;2022-11-20T03:56:00;16.80;15.97;11.10
64861;PMS5003;62652;42.274;-71.436;2022-11-20T03:57:00;14.27;13.80;9.40
64861;PMS5003;62652;42.274;-71.436;2022-11-20T03:58:00;17.73;16.40;9.43
64861;PMS5003;62652;42.274;-71.436;2022-11-20T03:59:00;17.67;16.70;10.23
64861;PMS5003;62652;42.274;-71.436;2022-11-20T04:00:00;16.03;14.27;8.93
64861;PMS5003;62652;42.274;-71.436;2022-11-20T04:01:04;17.27;15.80;10.40
64861;PMS5003;62652;42.274;-71.436;2022-11-20T04:02:00;17.80;16.17;10.27
64861;PMS5003;62652;42.274;-71.436;2022-11-20T04:03:00;17.63;15.77;9.77
64861;PMS5003;62652;42.274;-71.436;2022-11-20T04:04:00;18.63;16.27;9.90
64861;PMS5003;62652;42.274;-71.436;2022-11-20T04:05:00;16.00;14.87;9.87
64861;PMS5003;62652;42.274;-71.436;2022-11-20T04:06:01;15.70;14.57;10.40
64861;PMS5003;62652;42.274;-71.436;2022-11-20T04:07:00;14.83;14.67;10.90
64861;PMS5003;62652;42.274;-71.436;2022-11-20T04:08:00;17.30;17.20;12.17
64861;PMS5003;62652;42.274;-71.436;2022-11-20T04:09:00;16.33;15.43;10.67
64861;PMS5003;62652;42.274;-71.436;2022-11-20T04:10:00;22.57;18.20;11.50
64861;PMS5003;62652;42.274;-71.436;2022-11-20T04:11:08;17.33;16.90;11.33
64861;PMS5003;62652;42.274;-71.436;2022-11-20T04:12:00;18.03;15.70;10.13
64861;PMS5003;62652;42.274;-71.436;2022-11-20T04:13:00;17.73;16.73;11.60
64861;PMS5003;62652;42.274;-71.436;2022-11-20T04:14:00;17.50;16.47;11.50
64861;PMS5003;62652;42.274;-71.436;2022-11-20T04:15:00;18.67;17.60;11.47
64861;PMS5003;62652;42.274;-71.436;2022-11-20T04:16:00;17.40;16.40;10.23
64861;PMS5003;62652;42.274;-71.436;2022-11-20T04:17:00;19.67;16.40;11.40
64861;PMS5003;62652;42.274;-71.436;2022-11-20T04:18:00;18.80;16.97;10.60
64861;PMS5003;62652;42.274;-71.436;2022-11-20T04:19:01;17.27;16.43;11.53
64861;PMS5003;62652;42.274;-71.436;2022-11-20T04:20:00;19.27;17.80;10.87
64861;PMS5003;62652;42.274;-71.436;2022-11-20T04:21:00;19.30;17.27;11.07
64861;PMS5003;62652;42.274;-71.436;2022-11-20T04:22:00;20.77;17.80;10.50
64861;PMS5003;62652;42.274;-71.436;2022-11-20T04:23:00;18.37;17.23;11.97
64861;PMS5003;62652;42.274;-71.436;2022-11-20T04:24:00;17.40;16.87;10.60
64861;PMS5003;62652;42.274;-71.436;2022-11-20T04:25:00;16.67;16.27;10.97
64861;PMS5003;62652;42.274;-71.436;2022-11-20T04:26:00;18.40;17.10;11.07
64861;PMS5003;62652;42.274;-71.436;2022-11-20T04:27:00;20.20;18.20;12.10
64861;PMS5003;62652;42.274;-71.436;2022-11-20T04:28:00;18.17;16.77;11.47
64861;PMS5003;62652;42.274;-71.436;2022-11-20T04:29:00;22.27;17.83;11.57
64861;PMS5003;62652;42.274;-71.436;2022-11-20T04:30:00;16.77;16.23;11.13
64861;PMS5003;62652;42.274;-71.436;2022-11-20T04:31:02;20.03;19.03;12.40
64861;PMS5003;62652;42.274;-71.436;2022-11-20T04:32:00;18.63;15.77;11.00
64861;PMS5003;62652;42.274;-71.436;2022-11-20T04:33:00;21.33;19.13;12.87
64861;PMS5003;62652;42.274;-71.436;2022-11-20T04:34:00;21.27;19.17;10.87
64861;PMS5003;62652;42.274;-71.436;2022-11-20T04:35:00;18.23;17.17;11.77
64861;PMS5003;62652;42.274;-71.436;2022-11-20T04:36:01;21.33;18.43;12.43
64861;PMS5003;62652;42.274;-71.436;2022-11-20T04:37:00;17.40;16.77;11.20
64861;PMS5003;62652;42.274;-71.436;2022-11-20T04:38:00;21.13;18.97;12.77
64861;PMS5003;62652;42.274;-71.436;2022-11-20T04:39:01;20.47;18.53;13.07
64861;PMS5003;62652;42.274;-71.436;2022-11-20T04:40:00;22.00;20.30;14.67
64861;PMS5003;62652;42.274;-71.436;2022-11-20T04:41:01;22.87;20.80;13.93
64861;PMS5003;62652;42.274;-71.436;2022-11-20T04:42:00;22.87;19.77;14.23
64861;PMS5003;62652;42.274;-71.436;2022-11-20T04:43:00;20.93;18.67;11.97
64861;PMS5003;62652;42.274;-71.436;2022-11-20T04:44:01;20.93;18.57;13.40
64861;PMS5003;62652;42.274;-71.436;2022-11-20T04:45:00;20.63;18.97;12.80
64861;PMS5003;62652;42.274;-71.436;2022-11-20T04:46:00;21.07;19.67;12.53
64861;PMS5003;62652;42.274;-71.436;2022-11-20T04:47:00;21.40;19.40;14.27
64861;PMS5003;62652;42.274;-71.436;2022-11-20T04:48:00;21.97;20.40;13.43
64861;PMS5003;62652;42.274;-71.436;2022-11-20T04:49:00;21.37;18.37;12.47
64861;PMS5003;62652;42.274;-71.436;2022-11-20T04:50:00;19.10;18.83;13.50
64861;PMS5003;62652;42.274;-71.436;2022-11-20T04:51:02;23.83;21.47;14.57
64861;PMS5003;62652;42.274;-71.436;2022-11-20T04:52:00;20.57;18.20;13.83
64861;PMS5003;62652;42.274;-71.436;2022-11-20T04:53:00;21.47;17.97;13.13
64861;PMS5003;62652;42.274;-71.436;2022-11-20T04:54:00;22.13;19.80;14.20
64861;PMS5003;62652;42.274;-71.436;2022-11-20T04:55:00;21.43;18.47;14.47
64861;PMS5003;62652;42.274;-71.436;2022-11-20T04:56:00;22.27;18.80;13.43
64861;PMS5003;62652;42.274;-71.436;2022-11-20T04:57:00;20.97;20.07;13.87
64861;PMS5003;62652;42.274;-71.436;2022-11-20T04:58:00;21.87;21.00;14.10
64861;PMS5003;62652;42.274;-71.436;2022-11-20T04:59:00;17.10;16.90;11.13
64861;PMS5003;62652;42.274;-71.436;2022-11-20T05:00:00;18.90;18.43;11.23
64861;PMS5003;62652;42.274;-71.436;2022-11-20T05:01:00;20.77;19.00;13.60
64861;PMS5003;62652;42.274;-71.436;2022-11-20T05:02:00;20.03;18.33;12.20
64861;PMS5003;62652;42.274;-71.436;2022-11-20T05:03:00;17.43;16.67;11.07
64861;PMS5003;62652;42.274;-71.436;2022-11-20T05:04:00;19.03;19.03;14.33
64861;PMS5003;62652;42.274;-71.436;2022-11-20T05:05:00;17.20;16.43;11.97
64861;PMS5003;62652;42.274;-71.436;2022-11-20T05:06:00;21.87;19.27;12.97
64861;PMS5003;62652;42.274;-71.436;2022-11-20T05:07:00;21.57;18.17;13.30
64861;PMS5003;62652;42.274;-71.436;2022-11-20T05:08:00;20.97;19.57;11.63
64861;PMS5003;62652;42.274;-71.436;2022-11-20T05:09:00;20.53;18.87;13.60
64861;PMS5003;62652;42.274;-71.436;2022-11-20T05:10:00;21.67;20.17;12.53
64861;PMS5003;62652;42.274;-71.436;2022-11-20T05:11:00;23.43;21.67;12.20
64861;PMS5003;62652;42.274;-71.436;2022-11-20T05:12:00;20.87;19.37;11.87
64861;PMS5003;62652;42.274;-71.436;2022-11-20T05:13:00;19.93;18.33;11.90
64861;PMS5003;62652;42.274;-71.436;2022-11-20T05:14:00;21.30;20.57;15.33
64861;PMS5003;62652;42.274;-71.436;2022-11-20T05:15:00;18.33;17.50;12.00
64861;PMS5003;62652;42.274;-71.436;2022-11-20T05:16:01;18.50;17.37;11.40
64861;PMS5003;62652;42.274;-71.436;2022-11-20T05:17:00;22.80;21.27;13.47
64861;PMS5003;62652;42.274;-71.436;2022-11-20T05:18:00;25.67;22.47;13.60
64861;PMS5003;62652;42.274;-71.436;2022-11-20T05:19:00;18.87;16.30;11.40
64861;PMS5003;62652;42.274;-71.436;2022-11-20T05:20:00;22.47;19.73;14.53
64861;PMS5003;62652;42.274;-71.436;2022-11-20T05:21:00;26.50;23.90;15.43
64861;PMS5003;62652;42.274;-71.436;2022-11-20T05:22:00;30.00;28.13;17.70
64861;PMS5003;62652;42.274;-71.436;2022-11-20T05:23:00;33.63;31.13;19.43
64861;PMS5003;62652;42.274;-71.436;2022-11-20T05:24:00;28.10;25.40;16.93
64861;PMS5003;62652;42.274;-71.436;2022-11-20T05:25:00;28.37;27.10;18.90
64861;PMS5003;62652;42.274;-71.436;2022-11-20T05:26:00;28.57;26.47;17.20
64861;PMS5003;62652;42.274;-71.436;2022-11-20T05:27:00;26.17;24.00;17.23
64861;PMS5003;62652;42.274;-71.436;2022-11-20T05:28:00;34.60;31.53;19.73
64861;PMS5003;62652;42.274;-71.436;2022-11-20T05:29:00;39.80;34.43;20.83